Time;durP1;ratioP1;P1;durP2;ratioP2;P2;SDS_P1;SDS_P2;PMS_P1;PMS_P2;Temp;Humidity;BMP_temperature;BMP_pressure;BME280_temperature;BME280_humidity;BME280_pressure;Samples;Min_cycle;Max_cycle;Signal;HPM_P1;HPM_P2
2021/11/02 00:00:47;;;;;;;2.85;2.55;;;;;;;;;;2088851;28;20183;-61
2021/11/02 00:01:47;;;;;;;4.93;2.42;;;;;;;;;;2088565;28;20255;-60
2021/11/02 00:02:47;;;;;;;5.20;2.60;;;;;;;;;;2088372;28;20691;-61
2021/11/02 00:03:48;;;;;;;3.78;2.90;;;;;;;;;;2084742;28;20511;-63
2021/11/02 00:04:48;;;;;;;5.97;2.92;;;;;;;;;;2086112;28;20170;-63
2021/11/02 00:05:48;;;;;;;8.10;3.20;;;;;;;;;;2088375;28;20593;-61
2021/11/02 00:06:49;;;;;;;3.40;3.10;;;;;;;;;;2090293;28;20663;-63
2021/11/02 00:07:49;;;;;;;4.95;2.67;;;;;;;;;;2087248;28;20218;-63
2021/11/02 00:08:49;;;;;;;4.85;2.63;;;;;;;;;;2090079;28;20185;-62
2021/11/02 00:09:51;;;;;;;4.55;2.95;;;;;;;;;;2085099;28;20189;-63
2021/11/02 00:10:57;;;;;;;5.75;2.70;;;;;;;;;;2084796;28;20243;-63
2021/11/02 00:11:58;;;;;;;3.50;2.60;;;;;;;;;;2089487;28;20179;-63
2021/11/02 00:12:59;;;;;;;4.18;2.72;;;;;;;;;;2097592;28;20823;-62
2021/11/02 00:14:01;;;;;;;3.88;2.80;;;;;;;;;;2099307;28;20313;-64
2021/11/02 00:15:03;;;;;;;6.85;2.67;;;;;;;;;;2078258;28;20184;-62
2021/11/02 00:16:06;;;;;;;6.20;3.08;;;;;;;;;;2078571;28;20185;-63
2021/11/02 00:17:13;;;;;;;4.43;2.67;;;;;;;;;;2079132;28;20180;-63
2021/11/02 00:18:14;;;;;;;5.82;2.75;;;;;;;;;;2086521;28;20186;-63
2021/11/02 00:19:15;;;;;;;3.30;3.00;;;;;;;;;;2080414;28;20173;-63
2021/11/02 00:20:15;;;;;;;4.40;2.65;;;;;;;;;;2087449;28;20660;-60
2021/11/02 00:21:16;;;;;;;4.65;2.75;;;;;;;;;;2085036;28;20199;-62
2021/11/02 00:22:17;;;;;;;5.68;3.10;;;;;;;;;;2090442;28;20197;-62
2021/11/02 00:23:17;;;;;;;3.60;3.17;;;;;;;;;;2091076;28;20170;-63
2021/11/02 00:24:38;;;;;;;2.95;2.75;;;;;;;;;;2092033;28;20206;-64
2021/11/02 00:25:38;;;;;;;5.22;3.20;;;;;;;;;;2086587;28;20172;-62
2021/11/02 00:26:39;;;;;;;4.88;2.85;;;;;;;;;;2088863;28;20164;-61
2021/11/02 00:27:40;;;;;;;6.43;3.17;;;;;;;;;;2091356;28;20262;-61
2021/11/02 00:28:40;;;;;;;6.47;3.03;;;;;;;;;;2088711;28;20601;-63
2021/11/02 00:29:40;;;;;;;3.85;3.00;;;;;;;;;;2088963;28;20207;-63
2021/11/02 00:30:42;;;;;;;3.40;3.03;;;;;;;;;;2068771;28;20241;-62
2021/11/02 00:31:42;;;;;;;4.43;2.78;;;;;;;;;;2081582;28;20195;-63
2021/11/02 00:32:43;;;;;;;5.22;2.65;;;;;;;;;;2087377;28;20516;-63
2021/11/02 00:33:44;;;;;;;4.88;3.20;;;;;;;;;;2087029;28;20262;-62
2021/11/02 00:34:44;;;;;;;4.68;3.10;;;;;;;;;;2087153;28;20644;-63
2021/11/02 00:35:44;;;;;;;6.63;3.08;;;;;;;;;;2084493;28;20199;-61
2021/11/02 00:36:45;;;;;;;7.03;2.95;;;;;;;;;;2089260;28;20192;-64
2021/11/02 00:37:46;;;;;;;5.15;2.90;;;;;;;;;;2083184;28;20210;-67
2021/11/02 00:38:46;;;;;;;5.97;2.95;;;;;;;;;;2086799;28;20168;-62
2021/11/02 00:39:47;;;;;;;2.75;2.45;;;;;;;;;;2087507;28;20168;-66
2021/11/02 00:40:47;;;;;;;5.97;3.00;;;;;;;;;;2087773;28;20186;-63
2021/11/02 00:41:47;;;;;;;4.35;2.80;;;;;;;;;;2088359;28;20183;-61
2021/11/02 00:42:53;;;;;;;2.72;2.53;;;;;;;;;;2085991;28;20226;-64
2021/11/02 00:43:55;;;;;;;8.82;3.40;;;;;;;;;;2077517;28;20179;-63
2021/11/02 00:44:56;;;;;;;4.15;3.17;;;;;;;;;;2079081;28;20197;-64
2021/11/02 00:45:57;;;;;;;4.80;3.05;;;;;;;;;;2077491;28;20169;-64
2021/11/02 00:46:58;;;;;;;3.17;2.85;;;;;;;;;;2088226;28;20164;-62
2021/11/02 00:47:59;;;;;;;3.72;2.67;;;;;;;;;;2087494;28;20199;-62
2021/11/02 00:49:00;;;;;;;4.80;2.78;;;;;;;;;;2071369;28;20180;-62
2021/11/02 00:50:01;;;;;;;4.95;3.08;;;;;;;;;;2080921;28;20538;-63
2021/11/02 00:51:01;;;;;;;6.38;3.05;;;;;;;;;;2090164;28;20168;-63
2021/11/02 00:52:02;;;;;;;5.88;3.60;;;;;;;;;;2082528;28;20169;-64
2021/11/02 00:53:03;;;;;;;4.28;2.90;;;;;;;;;;2089869;28;20164;-63
2021/11/02 00:54:03;;;;;;;4.30;3.03;;;;;;;;;;2092863;28;20191;-63
2021/11/02 00:55:05;;;;;;;6.40;2.97;;;;;;;;;;2090664;28;20259;-65
2021/11/02 00:56:05;;;;;;;4.55;2.88;;;;;;;;;;2090902;28;20160;-63
2021/11/02 00:57:05;;;;;;;4.38;2.70;;;;;;;;;;2088220;28;20171;-63
2021/11/02 00:58:06;;;;;;;6.93;3.17;;;;;;;;;;2080167;28;20212;-63
2021/11/02 00:59:06;;;;;;;6.30;3.03;;;;;;;;;;2092330;28;20625;-61
2021/11/02 01:00:08;;;;;;;5.70;3.00;;;;;;;;;;2087937;28;20171;-64
2021/11/02 01:01:09;;;;;;;3.60;2.83;;;;;;;;;;2083828;28;20179;-60
2021/11/02 01:02:09;;;;;;;4.68;3.20;;;;;;;;;;2094409;28;20175;-63
2021/11/02 01:03:09;;;;;;;4.13;2.78;;;;;;;;;;2091764;28;20163;-61
2021/11/02 01:04:10;;;;;;;5.30;2.97;;;;;;;;;;2092872;28;20175;-64
2021/11/02 01:05:11;;;;;;;4.95;2.90;;;;;;;;;;2087647;28;20538;-63
2021/11/02 01:06:12;;;;;;;6.70;3.17;;;;;;;;;;2089979;28;20182;-62
2021/11/02 01:07:13;;;;;;;3.90;2.92;;;;;;;;;;2088647;28;20653;-63
2021/11/02 01:08:13;;;;;;;4.40;3.17;;;;;;;;;;2093879;28;20183;-63
2021/11/02 01:09:14;;;;;;;4.68;2.67;;;;;;;;;;2094999;28;20167;-65
2021/11/02 01:10:18;;;;;;;3.10;2.58;;;;;;;;;;2094601;28;20194;-64
2021/11/02 01:11:20;;;;;;;4.63;3.15;;;;;;;;;;2091959;28;20159;-64
2021/11/02 01:12:21;;;;;;;7.47;2.97;;;;;;;;;;2093703;28;20215;-64
2021/11/02 01:13:23;;;;;;;4.40;2.40;;;;;;;;;;2087836;28;20163;-63
2021/11/02 01:14:23;;;;;;;7.13;3.20;;;;;;;;;;2087924;28;20163;-64
2021/11/02 01:15:26;;;;;;;5.70;2.92;;;;;;;;;;2089337;28;20271;-64
2021/11/02 01:16:28;;;;;;;4.75;2.88;;;;;;;;;;2090712;28;20209;-62
2021/11/02 01:17:28;;;;;;;6.25;2.85;;;;;;;;;;2090145;28;20172;-64
2021/11/02 01:18:28;;;;;;;6.78;2.95;;;;;;;;;;2095485;28;20187;-62
2021/11/02 01:19:29;;;;;;;5.43;2.70;;;;;;;;;;2092872;28;20182;-62
2021/11/02 01:20:29;;;;;;;4.15;2.95;;;;;;;;;;2082563;28;20795;-62
2021/11/02 01:21:30;;;;;;;4.15;2.78;;;;;;;;;;2082207;28;20248;-64
2021/11/02 01:22:31;;;;;;;6.32;3.53;;;;;;;;;;2078958;28;20160;-62
2021/11/02 01:23:35;;;;;;;6.07;3.55;;;;;;;;;;2073390;28;20165;-62
2021/11/02 01:24:36;;;;;;;5.93;3.53;;;;;;;;;;2089422;28;20183;-62
2021/11/02 01:25:36;;;;;;;4.25;2.85;;;;;;;;;;2088309;28;20242;-61
2021/11/02 01:26:37;;;;;;;4.45;3.20;;;;;;;;;;2084968;28;20192;-61
2021/11/02 01:27:39;;;;;;;8.23;3.20;;;;;;;;;;2083621;28;20500;-62
2021/11/02 01:28:40;;;;;;;4.57;3.08;;;;;;;;;;2092453;28;20729;-63
2021/11/02 01:29:41;;;;;;;6.95;3.08;;;;;;;;;;2091149;28;20222;-62
2021/11/02 01:30:42;;;;;;;5.35;3.08;;;;;;;;;;2092053;28;20562;-62
2021/11/02 01:31:45;;;;;;;6.07;3.38;;;;;;;;;;2074056;28;20256;-61
2021/11/02 01:32:46;;;;;;;4.25;2.90;;;;;;;;;;2075441;28;20326;-61
2021/11/02 01:33:46;;;;;;;7.60;3.13;;;;;;;;;;2078431;28;20200;-59
2021/11/02 01:34:47;;;;;;;5.63;3.28;;;;;;;;;;2078818;28;20638;-60
2021/11/02 01:35:47;;;;;;;6.68;3.55;;;;;;;;;;2086545;28;20161;-60
2021/11/02 01:36:49;;;;;;;3.20;2.90;;;;;;;;;;2077740;28;20198;-61
2021/11/02 01:37:50;;;;;;;6.80;3.65;;;;;;;;;;2068748;28;20177;-60
2021/11/02 01:38:51;;;;;;;8.75;3.30;;;;;;;;;;2079449;28;20550;-60
2021/11/02 01:39:52;;;;;;;4.78;2.78;;;;;;;;;;2085982;28;20167;-60
2021/11/02 01:40:54;;;;;;;5.22;3.25;;;;;;;;;;2086136;28;20206;-59
2021/11/02 01:41:55;;;;;;;4.97;3.13;;;;;;;;;;2081118;28;20234;-62
2021/11/02 01:42:56;;;;;;;11.38;3.58;;;;;;;;;;2073830;28;20235;-62
2021/11/02 01:43:59;;;;;;;5.40;2.80;;;;;;;;;;2088566;28;20645;-62
2021/11/02 01:45:02;;;;;;;3.67;3.22;;;;;;;;;;2088962;28;20187;-62
2021/11/02 01:46:02;;;;;;;3.70;3.25;;;;;;;;;;2081730;28;20173;-60
2021/11/02 01:47:07;;;;;;;5.57;2.83;;;;;;;;;;2079838;28;20268;-62
2021/11/02 01:48:15;;;;;;;5.97;3.63;;;;;;;;;;2083073;28;20768;-63
2021/11/02 01:49:18;;;;;;;6.00;3.20;;;;;;;;;;2086858;28;20552;-60
2021/11/02 01:50:19;;;;;;;5.57;3.58;;;;;;;;;;2085759;28;20168;-60
2021/11/02 01:51:22;;;;;;;6.70;3.20;;;;;;;;;;2076634;28;20267;-60
2021/11/02 01:52:22;;;;;;;6.63;3.25;;;;;;;;;;2083784;28;20299;-59
2021/11/02 01:53:24;;;;;;;7.70;3.47;;;;;;;;;;2077921;28;20558;-62
2021/11/02 01:54:32;;;;;;;4.22;3.08;;;;;;;;;;2069529;28;20165;-60
2021/11/02 01:55:33;;;;;;;4.72;3.00;;;;;;;;;;2076325;28;20169;-60
2021/11/02 01:56:35;;;;;;;4.93;3.03;;;;;;;;;;2081530;28;20168;-60
2021/11/02 01:57:39;;;;;;;3.78;3.35;;;;;;;;;;2080902;28;20190;-61
2021/11/02 01:58:40;;;;;;;4.65;2.95;;;;;;;;;;2080877;28;20184;-61
2021/11/02 01:59:41;;;;;;;4.53;3.30;;;;;;;;;;2083528;28;20175;-60
2021/11/02 02:01:00;;;;;;;7.55;3.22;;;;;;;;;;2088623;28;20762;-60
2021/11/02 02:02:07;;;;;;;3.05;2.85;;;;;;;;;;2085691;28;20169;-62
2021/11/02 02:03:25;;;;;;;4.65;2.90;;;;;;;;;;2079979;28;20595;-60
2021/11/02 02:04:49;;;;;;;4.78;2.90;;;;;;;;;;2074823;28;20649;-63
2021/11/02 02:06:01;;;;;;;4.15;3.00;;;;;;;;;;2044872;28;20285;-61
2021/11/02 02:07:22;;;;;;;3.78;3.08;;;;;;;;;;2080260;28;20580;-59
2021/11/02 02:08:22;;;;;;;6.30;3.28;;;;;;;;;;2087393;28;20663;-61
2021/11/02 02:09:28;;;;;;;4.40;2.97;;;;;;;;;;2086848;28;20176;-59
2021/11/02 02:10:47;;;;;;;4.47;3.60;;;;;;;;;;2085875;28;20152;-60
2021/11/02 02:11:54;;;;;;;5.20;3.55;;;;;;;;;;2085324;28;20203;-58
2021/11/02 02:13:00;;;;;;;8.75;3.70;;;;;;;;;;2091811;28;20170;-60
2021/11/02 02:14:12;;;;;;;4.57;3.20;;;;;;;;;;2085334;28;20172;-61
2021/11/02 02:15:15;;;;;;;5.10;3.30;;;;;;;;;;2078412;28;20165;-63
2021/11/02 02:16:21;;;;;;;4.93;2.78;;;;;;;;;;2079325;28;20165;-62
2021/11/02 02:17:36;;;;;;;6.43;3.25;;;;;;;;;;2085250;28;20168;-64
2021/11/02 02:18:42;;;;;;;4.22;3.55;;;;;;;;;;2084581;28;20247;-62
2021/11/02 02:19:46;;;;;;;4.78;2.88;;;;;;;;;;2095046;28;20593;-63
2021/11/02 02:21:05;;;;;;;4.18;3.10;;;;;;;;;;2091166;28;20171;-59
2021/11/02 02:22:21;;;;;;;4.25;3.20;;;;;;;;;;2077675;28;20177;-54
2021/11/02 02:23:32;;;;;;;4.13;3.45;;;;;;;;;;2083825;28;20172;-58
2021/11/02 02:24:41;;;;;;;4.05;3.33;;;;;;;;;;2089348;28;20163;-61
2021/11/02 02:25:53;;;;;;;6.43;3.58;;;;;;;;;;2082257;28;20183;-60
2021/11/02 02:27:07;;;;;;;5.85;3.60;;;;;;;;;;2081674;28;20176;-60
2021/11/02 02:28:21;;;;;;;5.32;3.40;;;;;;;;;;2079702;28;20243;-62
2021/11/02 02:29:23;;;;;;;4.25;3.15;;;;;;;;;;2085168;28;20266;-61
2021/11/02 02:30:23;;;;;;;6.35;3.38;;;;;;;;;;2079598;28;20263;-63
2021/11/02 02:31:27;;;;;;;5.30;3.38;;;;;;;;;;2088009;28;20176;-60
2021/11/02 02:32:29;;;;;;;3.72;3.10;;;;;;;;;;2095378;28;20200;-57
2021/11/02 02:33:33;;;;;;;5.55;3.13;;;;;;;;;;2096594;28;20305;-64
2021/11/02 02:34:34;;;;;;;5.00;3.03;;;;;;;;;;2089646;28;20171;-62
2021/11/02 02:35:35;;;;;;;4.90;3.17;;;;;;;;;;2079832;28;20173;-57
2021/11/02 02:36:35;;;;;;;10.48;3.67;;;;;;;;;;2079642;28;20192;-61
2021/11/02 02:37:41;;;;;;;4.57;2.90;;;;;;;;;;2072382;28;20179;-59
2021/11/02 02:38:44;;;;;;;7.20;3.65;;;;;;;;;;2086600;28;20195;-56
2021/11/02 02:39:45;;;;;;;3.85;3.20;;;;;;;;;;2088316;28;20175;-61
2021/11/02 02:40:50;;;;;;;5.80;2.88;;;;;;;;;;2085165;28;20187;-61
2021/11/02 02:41:51;;;;;;;4.38;3.50;;;;;;;;;;2087831;28;20199;-60
2021/11/02 02:42:52;;;;;;;3.63;3.10;;;;;;;;;;2084620;28;20256;-62
2021/11/02 02:43:55;;;;;;;12.13;3.42;;;;;;;;;;2088090;28;20714;-62
2021/11/02 02:44:57;;;;;;;8.05;3.15;;;;;;;;;;2097362;28;20175;-61
2021/11/02 02:45:59;;;;;;;5.75;3.78;;;;;;;;;;2098166;28;20178;-60
2021/11/02 02:47:00;;;;;;;7.15;3.42;;;;;;;;;;2088804;28;20566;-63
2021/11/02 02:48:02;;;;;;;4.65;3.08;;;;;;;;;;2086823;28;20703;-59
2021/11/02 02:49:06;;;;;;;8.32;3.63;;;;;;;;;;2089362;28;20683;-62
2021/11/02 02:50:10;;;;;;;6.45;3.53;;;;;;;;;;2079767;28;20179;-61
2021/11/02 02:51:12;;;;;;;8.32;3.30;;;;;;;;;;2088077;28;20159;-61
2021/11/02 02:52:14;;;;;;;4.45;3.40;;;;;;;;;;2079647;28;20172;-60
2021/11/02 02:53:20;;;;;;;3.58;3.05;;;;;;;;;;2082496;28;20690;-60
2021/11/02 02:54:22;;;;;;;6.88;3.60;;;;;;;;;;2074170;28;20203;-62
2021/11/02 02:55:27;;;;;;;4.68;3.78;;;;;;;;;;2071592;28;20187;-64
2021/11/02 02:56:29;;;;;;;4.47;3.50;;;;;;;;;;2081971;28;20226;-60
2021/11/02 02:57:31;;;;;;;7.38;3.72;;;;;;;;;;2088971;28;20648;-63
2021/11/02 02:58:45;;;;;;;5.95;3.33;;;;;;;;;;2086696;28;20520;-60
2021/11/02 02:59:47;;;;;;;7.40;3.35;;;;;;;;;;2077701;28;20239;-61
2021/11/02 03:00:48;;;;;;;5.40;3.58;;;;;;;;;;2088161;28;20255;-60
2021/11/02 03:01:51;;;;;;;9.13;3.95;;;;;;;;;;2085608;28;20175;-62
2021/11/02 03:02:52;;;;;;;6.13;3.72;;;;;;;;;;2079728;28;20181;-60
2021/11/02 03:03:55;;;;;;;5.90;4.07;;;;;;;;;;2077596;28;20172;-62
2021/11/02 03:04:56;;;;;;;7.22;4.28;;;;;;;;;;2087187;28;20686;-57
2021/11/02 03:05:59;;;;;;;4.78;3.22;;;;;;;;;;2077740;28;20176;-60
2021/11/02 03:07:01;;;;;;;4.57;3.60;;;;;;;;;;2080248;28;20654;-58
2021/11/02 03:08:04;;;;;;;6.10;3.30;;;;;;;;;;2079959;28;20197;-60
2021/11/02 03:09:07;;;;;;;6.50;4.10;;;;;;;;;;2078213;28;20169;-62
2021/11/02 03:10:09;;;;;;;5.40;3.60;;;;;;;;;;2082657;28;20739;-63
2021/11/02 03:11:11;;;;;;;4.07;3.42;;;;;;;;;;2081993;28;20199;-60
2021/11/02 03:12:12;;;;;;;4.53;3.33;;;;;;;;;;2079716;28;20174;-61
2021/11/02 03:13:14;;;;;;;4.32;3.30;;;;;;;;;;2074767;28;20203;-61
2021/11/02 03:14:21;;;;;;;4.70;3.60;;;;;;;;;;2082851;28;20703;-61
2021/11/02 03:16:44;;;;;;;3.28;2.92;;;;;;;;;;2089089;28;20179;-64
2021/11/02 03:17:55;;;;;;;6.43;3.22;;;;;;;;;;2096112;28;20164;-63
2021/11/02 03:47:59;;;;;;;3.15;2.63;;;;;;;;;;2070543;28;20183;-52
2021/11/02 03:50:16;;;;;;;3.95;2.97;;;;;;;;;;2063749;28;20586;-51
2021/11/02 03:55:00;;;;;;;4.88;2.97;;;;;;;;;;2073759;28;20245;-58
2021/11/02 03:59:37;;;;;;;6.97;3.35;;;;;;;;;;2078086;28;20172;-51
2021/11/02 04:47:04;;;;;;;10.43;6.23;;;;;;;;;;2079267;28;20174;-51
2021/11/02 05:07:38;;;;;;;11.80;8.40;;;;;;;;;;2067384;28;20204;-55
2021/11/02 05:08:19;;;;;;;10.45;8.57;;;;;;;;;;2076160;28;20185;-56
2021/11/02 05:13:20;;;;;;;10.87;8.23;;;;;;;;;;2075356;28;20177;-56
2021/11/02 05:52:19;;;;;;;12.95;9.98;;;;;;;;;;2066538;28;20176;-56
2021/11/02 05:54:32;;;;;;;14.68;9.48;;;;;;;;;;2075428;28;20168;-52
2021/11/02 05:56:56;;;;;;;15.15;10.02;;;;;;;;;;2072812;28;20342;-52
2021/11/02 05:58:09;;;;;;;12.83;9.57;;;;;;;;;;2067259;28;20199;-52
2021/11/02 06:00:23;;;;;;;15.15;10.10;;;;;;;;;;2065368;28;20269;-54
2021/11/02 06:01:49;;;;;;;14.13;10.53;;;;;;;;;;2074827;28;20240;-51
2021/11/02 06:05:53;;;;;;;19.80;11.40;;;;;;;;;;2080744;28;20180;-53
2021/11/02 06:07:49;;;;;;;15.32;11.27;;;;;;;;;;2080398;28;20161;-51
2021/11/02 06:09:20;;;;;;;12.43;9.80;;;;;;;;;;2079364;28;20945;-53
2021/11/02 06:10:47;;;;;;;15.37;11.40;;;;;;;;;;2079285;28;20224;-53
2021/11/02 06:28:00;;;;;;;14.90;10.87;;;;;;;;;;2079028;28;20223;-53
2021/11/02 06:29:03;;;;;;;19.33;12.13;;;;;;;;;;2080490;28;20203;-53
2021/11/02 06:30:04;;;;;;;13.60;10.83;;;;;;;;;;2078195;28;20192;-51
2021/11/02 06:31:11;;;;;;;19.67;12.23;;;;;;;;;;2071082;28;20180;-51
2021/11/02 06:32:22;;;;;;;15.40;11.20;;;;;;;;;;2065768;28;20165;-58
2021/11/02 06:43:44;;;;;;;16.13;11.90;;;;;;;;;;2080080;28;20176;-55
2021/11/02 06:45:18;;;;;;;14.97;11.30;;;;;;;;;;2078084;28;20199;-52
2021/11/02 06:57:04;;;;;;;18.37;12.30;;;;;;;;;;2072922;28;20179;-56
2021/11/02 07:15:23;;;;;;;16.83;11.70;;;;;;;;;;2080578;28;20218;-52
2021/11/02 07:15:30;;;;;;;14.60;11.43;;;;;;;;;;2079113;28;20168;-53
2021/11/02 07:18:32;;;;;;;16.80;12.17;;;;;;;;;;2077949;28;20168;-52
2021/11/02 07:19:37;;;;;;;16.87;12.33;;;;;;;;;;2079533;28;20203;-53
2021/11/02 07:25:36;;;;;;;21.97;12.13;;;;;;;;;;2079642;28;20576;-53
2021/11/02 08:46:35;;;;;;;10.10;6.63;;;;;;;;;;2083697;28;20251;-55
2021/11/02 08:48:36;;;;;;;11.13;6.38;;;;;;;;;;2084067;28;20184;-52
2021/11/02 08:49:41;;;;;;;14.05;6.30;;;;;;;;;;2083858;28;20187;-53
2021/11/02 08:50:43;;;;;;;8.90;5.72;;;;;;;;;;2083573;28;20164;-52
2021/11/02 08:51:43;;;;;;;5.97;5.38;;;;;;;;;;2083711;28;20180;-56
2021/11/02 08:52:50;;;;;;;6.28;5.65;;;;;;;;;;2083337;28;20168;-54
2021/11/02 08:53:50;;;;;;;8.23;5.13;;;;;;;;;;2083309;28;20623;-53
2021/11/02 08:54:52;;;;;;;6.47;4.82;;;;;;;;;;2083902;28;20191;-53
2021/11/02 08:55:55;;;;;;;10.38;4.93;;;;;;;;;;2083784;28;20645;-53
2021/11/02 08:56:55;;;;;;;6.28;4.40;;;;;;;;;;2083753;28;20215;-55
2021/11/02 08:57:56;;;;;;;8.40;5.07;;;;;;;;;;2083687;28;20222;-53
2021/11/02 08:58:57;;;;;;;8.65;4.78;;;;;;;;;;2083970;28;20168;-54
2021/11/02 08:59:57;;;;;;;11.55;4.85;;;;;;;;;;2083847;28;20263;-52
2021/11/02 09:01:01;;;;;;;13.13;5.85;;;;;;;;;;2083705;28;20619;-53
2021/11/02 09:02:05;;;;;;;12.15;5.95;;;;;;;;;;2083911;28;20653;-52
2021/11/02 09:03:10;;;;;;;13.82;5.65;;;;;;;;;;2083912;28;20160;-54
2021/11/02 09:04:11;;;;;;;8.25;5.43;;;;;;;;;;2083810;28;20665;-53
2021/11/02 09:05:14;;;;;;;8.77;5.80;;;;;;;;;;2083957;28;20270;-52
2021/11/02 09:06:17;;;;;;;7.53;5.28;;;;;;;;;;2083805;28;20200;-55
2021/11/02 09:07:20;;;;;;;6.43;4.75;;;;;;;;;;2083285;28;20184;-56
2021/11/02 09:08:21;;;;;;;5.68;4.88;;;;;;;;;;2082769;28;20168;-54
2021/11/02 09:09:21;;;;;;;4.82;4.40;;;;;;;;;;2081949;28;20204;-59
2021/11/02 09:10:22;;;;;;;4.47;4.07;;;;;;;;;;2081536;28;20770;-57
2021/11/02 09:11:23;;;;;;;4.75;4.28;;;;;;;;;;2082655;28;20195;-53
2021/11/02 09:12:28;;;;;;;6.45;4.97;;;;;;;;;;2082872;28;20176;-56
2021/11/02 09:13:30;;;;;;;7.65;4.55;;;;;;;;;;2082816;28;20196;-54
2021/11/02 09:14:31;;;;;;;4.13;3.83;;;;;;;;;;2073743;28;20177;-54
2021/11/02 09:15:33;;;;;;;6.15;4.55;;;;;;;;;;2074051;28;20172;-56
2021/11/02 09:16:34;;;;;;;4.85;4.45;;;;;;;;;;2082467;28;20176;-54
2021/11/02 09:17:41;;;;;;;5.68;4.30;;;;;;;;;;2082450;28;20172;-55
2021/11/02 09:18:41;;;;;;;4.68;4.20;;;;;;;;;;2082506;28;20562;-52
2021/11/02 09:19:42;;;;;;;5.82;4.47;;;;;;;;;;2082712;28;20192;-53
2021/11/02 09:20:44;;;;;;;8.93;5.15;;;;;;;;;;2082302;28;20172;-54
2021/11/02 09:21:46;;;;;;;5.28;4.20;;;;;;;;;;2082462;28;20163;-55
2021/11/02 09:22:47;;;;;;;4.75;4.32;;;;;;;;;;2081044;28;20664;-55
2021/11/02 09:23:49;;;;;;;7.25;4.25;;;;;;;;;;2073042;28;20236;-55
2021/11/02 09:24:51;;;;;;;7.93;4.55;;;;;;;;;;2073419;28;20264;-55
2021/11/02 09:25:51;;;;;;;5.97;4.55;;;;;;;;;;2073174;28;20165;-56
2021/11/02 09:26:52;;;;;;;4.95;4.00;;;;;;;;;;2078122;28;20215;-56
2021/11/02 09:27:53;;;;;;;6.55;5.05;;;;;;;;;;2082517;28;20198;-56
2021/11/02 09:28:54;;;;;;;5.15;4.70;;;;;;;;;;2082647;28;20187;-56
2021/11/02 09:29:54;;;;;;;5.20;4.40;;;;;;;;;;2098864;22;20300;-64
2021/11/02 09:30:55;;;;;;;7.20;4.57;;;;;;;;;;2088279;28;20172;-62
2021/11/02 09:31:56;;;;;;;5.00;4.50;;;;;;;;;;2088735;28;20175;-62
2021/11/02 09:32:57;;;;;;;4.88;4.43;;;;;;;;;;2089930;28;20186;-63
2021/11/02 09:33:58;;;;;;;5.47;4.10;;;;;;;;;;2089304;28;20167;-62
2021/11/02 09:34:58;;;;;;;6.78;4.95;;;;;;;;;;2089949;28;20251;-63
2021/11/02 09:36:03;;;;;;;5.95;4.85;;;;;;;;;;2098830;28;20167;-62
2021/11/02 09:37:15;;;;;;;7.38;4.55;;;;;;;;;;2099240;28;20220;-63
2021/11/02 09:38:22;;;;;;;5.05;4.60;;;;;;;;;;2092020;28;20271;-63
2021/11/02 09:39:24;;;;;;;8.18;5.32;;;;;;;;;;2092455;28;20167;-63
2021/11/02 09:40:37;;;;;;;5.95;4.70;;;;;;;;;;2100811;28;20187;-62
2021/11/02 09:42:04;;;;;;;5.55;4.85;;;;;;;;;;2104381;28;20162;-63
2021/11/02 09:43:23;;;;;;;5.82;4.90;;;;;;;;;;2102189;28;20265;-63
2021/11/02 09:45:02;;;;;;;8.95;4.78;;;;;;;;;;2090122;28;20148;-61
2021/11/02 09:46:19;;;;;;;8.35;5.20;;;;;;;;;;2081410;28;20187;-63
2021/11/02 09:47:37;;;;;;;6.32;5.78;;;;;;;;;;2075671;28;20211;-62
2021/11/02 09:48:51;;;;;;;11.30;5.78;;;;;;;;;;2084805;28;20211;-63
2021/11/02 09:49:51;;;;;;;9.07;6.03;;;;;;;;;;2090270;28;20675;-63
2021/11/02 09:51:10;;;;;;;6.63;5.53;;;;;;;;;;2081257;28;20164;-61
2021/11/02 09:52:10;;;;;;;13.20;6.00;;;;;;;;;;2084277;28;20179;-64
2021/11/02 09:53:11;;;;;;;10.10;6.65;;;;;;;;;;2090387;28;20246;-64
2021/11/02 09:54:21;;;;;;;7.15;6.45;;;;;;;;;;2090455;28;20172;-63
2021/11/02 09:55:34;;;;;;;8.38;6.40;;;;;;;;;;2081654;28;20214;-64
2021/11/02 09:56:55;;;;;;;9.40;6.38;;;;;;;;;;2083422;28;20681;-62
2021/11/02 09:58:14;;;;;;;6.10;5.65;;;;;;;;;;2081660;28;20577;-62
2021/11/02 09:59:36;;;;;;;6.82;5.55;;;;;;;;;;2084193;28;20168;-62
2021/11/02 10:00:37;;;;;;;10.07;6.20;;;;;;;;;;2090061;28;20175;-62
2021/11/02 10:01:49;;;;;;;7.00;6.10;;;;;;;;;;2079361;28;20930;-59
2021/11/02 10:03:01;;;;;;;14.77;6.15;;;;;;;;;;2075102;28;20536;-62
2021/11/02 10:04:10;;;;;;;6.93;6.22;;;;;;;;;;2089027;28;20818;-61
2021/11/02 10:05:16;;;;;;;6.03;5.43;;;;;;;;;;2086354;28;20163;-61
2021/11/02 10:06:19;;;;;;;5.88;5.28;;;;;;;;;;2092086;28;20380;-64
2021/11/02 10:07:27;;;;;;;5.97;5.43;;;;;;;;;;2094347;28;20520;-64
2021/11/02 10:08:32;;;;;;;6.20;5.60;;;;;;;;;;2091061;28;20171;-64
2021/11/02 10:09:46;;;;;;;11.75;8.90;;;;;;;;;;2080619;28;20168;-63
2021/11/02 10:11:05;;;;;;;11.10;6.60;;;;;;;;;;2082146;28;20168;-63
2021/11/02 10:12:11;;;;;;;15.85;6.63;;;;;;;;;;2086920;28;20226;-64
2021/11/02 10:13:22;;;;;;;13.13;6.68;;;;;;;;;;2082890;28;20171;-65
2021/11/02 10:14:43;;;;;;;20.40;6.68;;;;;;;;;;2091872;28;20240;-64
2021/11/02 10:16:01;;;;;;;14.57;7.05;;;;;;;;;;2098040;28;20166;-64
2021/11/02 10:17:08;;;;;;;9.70;5.50;;;;;;;;;;2082014;28;20172;-64
2021/11/02 10:18:28;;;;;;;5.78;5.00;;;;;;;;;;2082203;28;20234;-63
2021/11/02 10:19:47;;;;;;;9.43;6.32;;;;;;;;;;2073599;28;20258;-64
2021/11/02 10:20:48;;;;;;;6.65;4.45;;;;;;;;;;2075447;28;20284;-64
2021/11/02 10:22:06;;;;;;;6.97;5.35;;;;;;;;;;2073341;28;20177;-64
2021/11/02 10:23:07;;;;;;;6.25;5.75;;;;;;;;;;2076021;28;20252;-64
2021/11/02 10:24:31;;;;;;;7.40;6.68;;;;;;;;;;2082189;28;20182;-64
2021/11/02 10:25:31;;;;;;;7.20;6.50;;;;;;;;;;2081596;28;20613;-64
2021/11/02 10:26:31;;;;;;;7.68;6.43;;;;;;;;;;2073036;28;20264;-64
2021/11/02 10:27:47;;;;;;;6.60;5.60;;;;;;;;;;2073200;28;20181;-64
2021/11/02 10:29:07;;;;;;;6.15;5.63;;;;;;;;;;2073082;28;20173;-64
2021/11/02 10:30:25;;;;;;;6.25;5.40;;;;;;;;;;2076088;28;20298;-64
2021/11/02 10:31:38;;;;;;;5.38;4.90;;;;;;;;;;2081913;28;20199;-64
2021/11/02 10:32:41;;;;;;;6.57;4.75;;;;;;;;;;2082090;28;20521;-62
2021/11/02 10:33:53;;;;;;;6.25;5.65;;;;;;;;;;2081832;28;20199;-64
2021/11/02 10:35:09;;;;;;;8.52;5.80;;;;;;;;;;2073162;28;20161;-64
2021/11/02 10:36:09;;;;;;;6.85;5.13;;;;;;;;;;2067012;28;20169;-64
2021/11/02 10:37:12;;;;;;;9.75;5.53;;;;;;;;;;2072752;28;20172;-64
2021/11/02 10:38:17;;;;;;;5.75;5.25;;;;;;;;;;2075745;28;20256;-64
2021/11/02 10:39:19;;;;;;;6.57;5.80;;;;;;;;;;2081944;28;20250;-64
2021/11/02 10:40:27;;;;;;;10.80;5.82;;;;;;;;;;2089704;28;20183;-64
2021/11/02 10:41:33;;;;;;;13.38;5.65;;;;;;;;;;2087069;28;20353;-63
2021/11/02 10:42:36;;;;;;;12.30;5.82;;;;;;;;;;2081804;28;20575;-64
2021/11/02 10:43:49;;;;;;;11.38;6.35;;;;;;;;;;2090165;28;20206;-64
2021/11/02 10:44:52;;;;;;;11.00;5.63;;;;;;;;;;2099081;28;20195;-64
2021/11/02 10:46:02;;;;;;;11.85;5.55;;;;;;;;;;2089992;28;20524;-64
2021/11/02 10:47:09;;;;;;;6.50;5.75;;;;;;;;;;2091272;28;20644;-64
2021/11/02 10:48:11;;;;;;;6.50;4.82;;;;;;;;;;2098814;28;20187;-64
2021/11/02 10:49:24;;;;;;;7.90;5.35;;;;;;;;;;2098525;28;20175;-64
2021/11/02 10:50:27;;;;;;;8.32;5.22;;;;;;;;;;2089251;28;20663;-63
2021/11/02 10:51:44;;;;;;;8.40;5.25;;;;;;;;;;2081655;28;20210;-62
2021/11/02 10:52:46;;;;;;;7.47;5.05;;;;;;;;;;2092146;28;20152;-66
2021/11/02 10:53:57;;;;;;;6.00;5.40;;;;;;;;;;2098463;28;20591;-64
2021/11/02 10:55:18;;;;;;;6.70;5.47;;;;;;;;;;2098673;28;20232;-63
2021/11/02 10:56:37;;;;;;;7.90;5.50;;;;;;;;;;2098449;28;20167;-64
2021/11/02 10:57:38;;;;;;;8.77;6.53;;;;;;;;;;2098542;28;20561;-64
2021/11/02 10:58:47;;;;;;;6.25;5.72;;;;;;;;;;2098496;28;20167;-63
2021/11/02 10:59:48;;;;;;;6.65;6.03;;;;;;;;;;2098691;28;20639;-63
2021/11/02 11:00:50;;;;;;;7.93;5.55;;;;;;;;;;2098032;28;20162;-63
2021/11/02 11:01:53;;;;;;;10.15;6.28;;;;;;;;;;2088001;28;20180;-63
2021/11/02 11:02:54;;;;;;;11.30;6.15;;;;;;;;;;2081268;28;20203;-62
2021/11/02 11:03:55;;;;;;;5.90;5.40;;;;;;;;;;2082960;28;20171;-64
2021/11/02 11:04:57;;;;;;;6.85;6.28;;;;;;;;;;2096391;28;20186;-62
2021/11/02 11:05:58;;;;;;;7.13;6.43;;;;;;;;;;2090472;28;20171;-62
2021/11/02 11:06:58;;;;;;;5.97;5.47;;;;;;;;;;2096070;28;20194;-62
2021/11/02 11:08:01;;;;;;;6.70;5.72;;;;;;;;;;2084570;28;20172;-64
2021/11/02 11:09:01;;;;;;;8.32;5.80;;;;;;;;;;2086004;28;20168;-62
2021/11/02 11:10:03;;;;;;;5.88;5.47;;;;;;;;;;2067689;28;20197;-63
2021/11/02 11:11:08;;;;;;;6.05;5.55;;;;;;;;;;2086480;28;20179;-63
2021/11/02 11:12:13;;;;;;;6.25;5.78;;;;;;;;;;2091963;28;20155;-62
2021/11/02 11:13:14;;;;;;;7.03;5.55;;;;;;;;;;2097507;28;20174;-62
2021/11/02 11:14:15;;;;;;;10.38;5.57;;;;;;;;;;2084793;28;20517;-62
2021/11/02 11:15:15;;;;;;;6.90;5.25;;;;;;;;;;2083931;28;20195;-63
2021/11/02 11:16:17;;;;;;;6.00;5.40;;;;;;;;;;2093616;28;20180;-60
2021/11/02 11:17:20;;;;;;;6.30;5.80;;;;;;;;;;2084661;28;20167;-60
2021/11/02 11:18:22;;;;;;;6.18;5.60;;;;;;;;;;2084666;28;20180;-64
2021/11/02 11:19:23;;;;;;;6.82;5.32;;;;;;;;;;2093720;28;20280;-62
2021/11/02 11:20:24;;;;;;;5.50;5.07;;;;;;;;;;2092161;28;20303;-64
2021/11/02 11:21:25;;;;;;;5.15;4.75;;;;;;;;;;2091683;28;20166;-63
2021/11/02 11:22:27;;;;;;;5.03;4.70;;;;;;;;;;2092398;28;20179;-64